createdAt,value
2023-03-16T00:00:31.848Z,99137.09
2023-03-16T00:03:33.674Z,99129.59
2023-03-16T00:06:35.347Z,99144.75
2023-03-16T00:09:37.830Z,99136.19
2023-03-16T00:12:39.494Z,99139.25
2023-03-16T00:15:41.760Z,99144.28
2023-03-16T00:18:43.385Z,99161.22
2023-03-16T00:21:47.976Z,99159.41
2023-03-16T00:24:49.657Z,99172.38
2023-03-16T00:27:51.323Z,99171.44
2023-03-16T00:30:52.974Z,99170.19
2023-03-16T00:33:54.617Z,99178.25
2023-03-16T00:36:56.241Z,99169.13
2023-03-16T00:39:58.402Z,99160.75
2023-03-16T00:43:00.041Z,99173.69
2023-03-16T00:46:01.922Z,99181.94
2023-03-16T00:49:03.700Z,99177.06
2023-03-16T00:52:06.419Z,99183.19
2023-03-16T00:55:09.638Z,99199.75
2023-03-16T00:58:11.309Z,99148.84
2023-03-16T01:01:15.040Z,99187.13
2023-03-16T01:04:16.747Z,99189.72
2023-03-16T01:07:18.472Z,99200.81
2023-03-16T01:10:20.185Z,99189.53
2023-03-16T01:13:22.018Z,99189.53
2023-03-16T01:16:23.705Z,99201.88
2023-03-16T01:19:25.372Z,99186.34
2023-03-16T01:22:27.132Z,99194.84
2023-03-16T01:25:29.484Z,99201.41
2023-03-16T01:28:32.158Z,99209.94
2023-03-16T01:31:34.153Z,99192.94
2023-03-16T01:34:36.044Z,99203.75
2023-03-16T01:37:39.012Z,99193.78
2023-03-16T01:40:50.258Z,99209.50
2023-03-16T01:43:51.942Z,99217.44
2023-03-16T01:46:53.603Z,99212.41
2023-03-16T01:49:56.218Z,99207.72
2023-03-16T01:53:00.849Z,99222.13
2023-03-16T01:56:03.259Z,99217.44
2023-03-16T01:59:07.517Z,99221.88
2023-03-16T02:02:09.818Z,99222.81
2023-03-16T02:05:14.235Z,99220.94
2023-03-16T02:08:16.100Z,99224.63
2023-03-16T02:11:17.744Z,99238.97
2023-03-16T02:14:28.285Z,99225.19
2023-03-16T02:17:30.868Z,99227.66
2023-03-16T02:20:44.288Z,99236.09
2023-03-16T02:23:46.680Z,99246.25
2023-03-16T02:27:01.236Z,99243.38
2023-03-16T02:30:16.942Z,99239.94
2023-03-16T02:33:33.002Z,99226.47
2023-03-16T02:36:34.816Z,99237.16
2023-03-16T02:39:36.597Z,99236.03
2023-03-16T02:42:38.731Z,99245.16
2023-03-16T02:45:44.115Z,99226.63
2023-03-16T02:48:50.902Z,99238.94
2023-03-16T02:51:54.219Z,99254.94
2023-03-16T02:54:56.219Z,99253.88
2023-03-16T02:57:57.883Z,99251.09
2023-03-16T03:00:59.572Z,99254.41
2023-03-16T03:04:01.921Z,99265.72
2023-03-16T03:07:03.556Z,99276.19
2023-03-16T03:10:06.585Z,99266.59
2023-03-16T03:13:08.531Z,99281.53
2023-03-16T03:16:10.700Z,99280.34
2023-03-16T03:19:12.927Z,99286.81
2023-03-16T03:22:15.195Z,99296.13
2023-03-16T03:25:17.252Z,99294.31
2023-03-16T03:28:18.921Z,99298.69
2023-03-16T03:31:21.583Z,99301.88
2023-03-16T03:34:23.267Z,99307.91
2023-03-16T03:37:24.895Z,99299.75
2023-03-16T03:40:27.260Z,99312.00
2023-03-16T03:43:35.804Z,99313.44
2023-03-16T03:46:38.283Z,99311.38
2023-03-16T03:49:40.048Z,99316.06
2023-03-16T03:52:41.805Z,99319.59
2023-03-16T03:55:43.658Z,99326.78
2023-03-16T03:58:45.331Z,99322.16
2023-03-16T04:01:51.313Z,99330.53
2023-03-16T04:04:53.171Z,99298.28
2023-03-16T04:07:55.074Z,99313.84
2023-03-16T04:10:57.484Z,99315.97
2023-03-16T04:13:59.252Z,99321.72
2023-03-16T04:17:01.180Z,99333.78
2023-03-16T04:20:06.662Z,99333.28
2023-03-16T04:23:08.451Z,99328.22
2023-03-16T04:26:12.415Z,99330.72
2023-03-16T04:29:17.037Z,99319.59
2023-03-16T04:32:19.129Z,99345.75
2023-03-16T04:35:21.083Z,99355.66
2023-03-16T04:38:26.800Z,99353.25
2023-03-16T04:41:30.953Z,99357.28
2023-03-16T04:44:55.432Z,99364.81
2023-03-16T04:47:57.118Z,99356.50
2023-03-16T04:50:59.285Z,99360.69
2023-03-16T04:54:04.589Z,99347.97
2023-03-16T04:57:10.210Z,99353.41
2023-03-16T05:00:19.682Z,99367.97
2023-03-16T05:03:53.355Z,99371.31
2023-03-16T05:06:55.618Z,99381.59
2023-03-16T05:10:02.172Z,99381.00
2023-03-16T05:13:04.157Z,99387.91
2023-03-16T05:16:06.498Z,99389.06
2023-03-16T05:19:12.781Z,99394.72
2023-03-16T05:22:14.454Z,99393.06
2023-03-16T05:25:30.365Z,99397.47
2023-03-16T05:28:36.106Z,99399.69
2023-03-16T05:31:41.315Z,99404.66
2023-03-16T05:34:49.280Z,99419.22
2023-03-16T05:37:51.024Z,99420.53
2023-03-16T05:40:54.980Z,99396.25
2023-03-16T05:44:13.929Z,99405.88
2023-03-16T05:47:33.984Z,99404.91
2023-03-16T05:50:35.657Z,99392.75
2023-03-16T05:53:37.528Z,99403.06
2023-03-16T05:56:46.547Z,99408.63
2023-03-16T05:59:49.481Z,99435.91
2023-03-16T06:02:51.698Z,99432.06
2023-03-16T06:05:54.142Z,99424.44
2023-03-16T06:09:04.594Z,99421.91
2023-03-16T06:12:09.827Z,99431.47
2023-03-16T06:15:12.439Z,99435.19
2023-03-16T06:18:14.418Z,99433.75
2023-03-16T06:21:17.058Z,99423.19
2023-03-16T06:24:21.369Z,99446.06
2023-03-16T06:27:23.052Z,99443.94
2023-03-16T06:30:40.474Z,99445.72
2023-03-16T06:33:43.076Z,99447.44
2023-03-16T06:36:44.804Z,99462.53
2023-03-16T06:39:48.050Z,99451.91
2023-03-16T06:42:51.419Z,99456.66
2023-03-16T06:45:53.394Z,99457.06
2023-03-16T06:48:59.386Z,99438.25
2023-03-16T06:52:01.114Z,99445.25
2023-03-16T06:55:02.933Z,99452.88
2023-03-16T06:58:08.570Z,99463.88
2023-03-16T07:01:10.864Z,99462.56
2023-03-16T07:04:12.645Z,99461.09
2023-03-16T07:07:15.306Z,99461.69
2023-03-16T07:10:18.030Z,99472.47
2023-03-16T07:13:19.685Z,99472.47
2023-03-16T07:16:21.405Z,99468.94
2023-03-16T07:19:26.180Z,99483.19
2023-03-16T07:22:30.393Z,99477.81
2023-03-16T07:25:32.226Z,99471.59
2023-03-16T07:28:43.866Z,99482.72
2023-03-16T07:31:45.806Z,99467.97
2023-03-16T07:34:53.090Z,99452.56
2023-03-16T07:37:55.532Z,99464.34
2023-03-16T07:40:59.852Z,99469.81
2023-03-16T07:44:01.987Z,99457.03
2023-03-16T07:47:03.636Z,99465.34
2023-03-16T07:50:08.454Z,99462.47
2023-03-16T07:53:10.595Z,99442.34
2023-03-16T07:56:14.661Z,99472.44
2023-03-16T07:59:21.365Z,99447.88
2023-03-16T08:02:23.227Z,99474.44
2023-03-16T08:05:28.981Z,99452.91
2023-03-16T08:08:35.052Z,99461.44
2023-03-16T08:11:36.846Z,99466.06
2023-03-16T08:14:40.118Z,99459.94
2023-03-16T08:17:48.240Z,99460.97
2023-03-16T08:20:56.938Z,99447.88
2023-03-16T08:23:59.921Z,99477.28
2023-03-16T08:27:02.262Z,99470.03
2023-03-16T08:30:07.065Z,99470.06
2023-03-16T08:33:11.461Z,99474.81
2023-03-16T08:36:18.645Z,99468.84
2023-03-16T08:39:26.810Z,99465.19
2023-03-16T08:42:28.821Z,99441.75
2023-03-16T08:45:34.573Z,99459.72
2023-03-16T08:48:36.280Z,99458.13
2023-03-16T08:51:38.102Z,99451.00
2023-03-16T08:54:43.069Z,99439.38
2023-03-16T08:57:46.665Z,99453.94
2023-03-16T09:00:51.144Z,99449.31
2023-03-16T09:03:55.865Z,99457.56
2023-03-16T09:07:11.813Z,99448.50
2023-03-16T09:10:13.562Z,99451.53
2023-03-16T09:13:15.225Z,99435.69
2023-03-16T09:16:16.911Z,99433.09
2023-03-16T09:19:18.620Z,99429.44
2023-03-16T09:22:20.449Z,99422.47
2023-03-16T09:25:22.703Z,99424.88
2023-03-16T09:28:24.346Z,99427.69
2023-03-16T09:31:26.038Z,99428.69
2023-03-16T09:34:31.503Z,99436.28
2023-03-16T09:37:44.875Z,99436.06
2023-03-16T09:40:55.476Z,99435.97
2023-03-16T09:44:20.743Z,99424.63
2023-03-16T09:47:25.873Z,99419.66
2023-03-16T09:50:35.274Z,99417.56
2023-03-16T09:53:47.258Z,99415.53
2023-03-16T09:56:48.900Z,99421.38
2023-03-16T09:59:50.550Z,99419.06
2023-03-16T10:03:19.479Z,99414.97
2023-03-16T10:06:21.153Z,99414.97
2023-03-16T10:09:33.048Z,99409.47
2023-03-16T10:12:37.794Z,99414.31
2023-03-16T10:15:39.436Z,99404.72
2023-03-16T10:18:46.686Z,99406.75
2023-03-16T10:21:50.946Z,99384.81
2023-03-16T10:24:55.504Z,99404.72
2023-03-16T10:27:57.471Z,99393.41
2023-03-16T10:31:00.184Z,99388.94
2023-03-16T10:34:04.770Z,99403.53
2023-03-16T10:37:06.485Z,99409.19
2023-03-16T10:40:09.295Z,99391.97
2023-03-16T10:43:14.174Z,99396.78
2023-03-16T10:46:16.294Z,99388.56
2023-03-16T10:49:25.931Z,99384.00
2023-03-16T10:52:46.392Z,99393.28
2023-03-16T10:55:48.129Z,99388.41
2023-03-16T10:58:52.456Z,99386.41
2023-03-16T11:01:55.191Z,99392.56
2023-03-16T11:04:56.945Z,99383.59
2023-03-16T11:07:58.541Z,99377.31
2023-03-16T11:11:00.642Z,99365.13
2023-03-16T11:14:04.091Z,99373.66
2023-03-16T11:17:19.485Z,99359.56
2023-03-16T11:20:23.744Z,99366.38
2023-03-16T11:23:31.603Z,99364.13
2023-03-16T11:26:37.495Z,99360.47
2023-03-16T11:29:48.230Z,99341.75
2023-03-16T11:32:53.179Z,99343.91
2023-03-16T11:36:13.017Z,99329.00
2023-03-16T11:39:36.317Z,99319.47
2023-03-16T11:42:39.304Z,99321.72
2023-03-16T11:46:11.645Z,99323.94
2023-03-16T11:49:25.532Z,99306.47
2023-03-16T11:52:57.781Z,99300.16
2023-03-16T11:56:21.168Z,99296.25
2023-03-16T11:59:46.278Z,99287.50
2023-03-16T12:03:02.802Z,99268.94
2023-03-16T12:06:42.464Z,99276.47
2023-03-16T12:10:16.702Z,99266.75
2023-03-16T12:13:27.333Z,99261.22
2023-03-16T12:17:01.986Z,99263.88
2023-03-16T12:20:27.310Z,99258.41
2023-03-16T12:23:31.853Z,99249.94
2023-03-16T12:26:39.246Z,99243.28
2023-03-16T12:29:43.189Z,99242.91
2023-03-16T12:33:04.679Z,99238.72
2023-03-16T12:36:35.896Z,99223.34
2023-03-16T12:40:15.039Z,99225.66
2023-03-16T12:43:28.462Z,99222.56
2023-03-16T12:47:03.433Z,99212.72
2023-03-16T12:50:10.063Z,99189.59
2023-03-16T12:53:42.940Z,99228.34
2023-03-16T12:56:47.922Z,99222.72
2023-03-16T12:59:49.685Z,99224.25
2023-03-16T13:02:53.355Z,99218.03
2023-03-16T13:05:57.264Z,99208.56
2023-03-16T13:08:59.958Z,99197.00
2023-03-16T13:12:01.644Z,99198.13
2023-03-16T13:15:27.047Z,99190.88
2023-03-16T13:18:34.866Z,99193.97
2023-03-16T13:21:40.471Z,99197.94
2023-03-16T13:25:14.565Z,99200.50
2023-03-16T13:28:16.213Z,99192.84
2023-03-16T13:31:35.910Z,99194.59
2023-03-16T13:35:01.106Z,99191.66
2023-03-16T13:38:04.755Z,99169.97
2023-03-16T13:41:12.529Z,99167.38
2023-03-16T13:44:15.088Z,99185.09
2023-03-16T13:47:19.922Z,99176.03
2023-03-16T13:50:28.067Z,99167.69
2023-03-16T13:53:31.049Z,99172.81
2023-03-16T13:56:32.774Z,99170.38
2023-03-16T13:59:37.470Z,99173.56
2023-03-16T14:02:42.775Z,99155.88
2023-03-16T14:05:44.833Z,99182.03
2023-03-16T14:08:48.127Z,99166.41
2023-03-16T14:11:51.943Z,99166.06
2023-03-16T14:14:55.328Z,99178.59
2023-03-16T14:18:08.812Z,99178.94
2023-03-16T14:21:14.585Z,99180.97
2023-03-16T14:24:35.746Z,99165.88
2023-03-16T14:27:41.382Z,99169.63
2023-03-16T14:30:53.551Z,99159.41
2023-03-16T14:34:01.653Z,99163.88
2023-03-16T14:37:09.314Z,99169.84
2023-03-16T14:40:26.145Z,99167.28
2023-03-16T14:43:36.121Z,99149.63
2023-03-16T14:46:39.640Z,99151.69
2023-03-16T14:49:43.295Z,99146.47
2023-03-16T14:52:45.146Z,99152.34
2023-03-16T14:55:47.301Z,99138.38
2023-03-16T14:58:54.931Z,99142.09
2023-03-16T15:01:56.655Z,99132.19
2023-03-16T15:04:58.757Z,99128.06
2023-03-16T15:08:00.498Z,99144.56
2023-03-16T15:11:05.053Z,99154.75
2023-03-16T15:14:10.563Z,99153.41
2023-03-16T15:17:12.165Z,99158.41
2023-03-16T15:20:15.258Z,99160.66
2023-03-16T15:23:16.914Z,99178.28
2023-03-16T15:26:24.492Z,99167.97
2023-03-16T15:29:26.684Z,99173.69
2023-03-16T15:32:28.445Z,99181.09
2023-03-16T15:35:30.306Z,99181.69
2023-03-16T15:38:33.078Z,99183.72
2023-03-16T15:41:46.822Z,99184.38
2023-03-16T15:44:49.671Z,99178.81
2023-03-16T15:47:52.390Z,99182.25
2023-03-16T15:51:20.984Z,99183.81
2023-03-16T15:54:22.628Z,99189.09
2023-03-16T15:57:24.278Z,99185.44
2023-03-16T16:00:36.682Z,99180.31
2023-03-16T16:03:38.365Z,99190.53
2023-03-16T16:06:40.048Z,99194.41
2023-03-16T16:09:41.668Z,99201.97
2023-03-16T16:12:44.696Z,99208.81
2023-03-16T16:15:46.450Z,99209.22
2023-03-16T16:18:48.175Z,99213.34
2023-03-16T16:21:50.197Z,99220.88
2023-03-16T16:24:52.244Z,99219.38
2023-03-16T16:27:54.034Z,99228.41
2023-03-16T16:30:55.879Z,99225.41
2023-03-16T16:33:57.594Z,99229.50
2023-03-16T16:36:59.260Z,99226.88
2023-03-16T16:40:01.131Z,99232.50
2023-03-16T16:43:03.082Z,99224.97
2023-03-16T16:46:06.663Z,99227.94
2023-03-16T16:49:22.901Z,99239.97
2023-03-16T16:52:24.766Z,99234.25
2023-03-16T16:55:26.685Z,99230.75
2023-03-16T16:58:29.747Z,99229.19
2023-03-16T17:01:32.841Z,99235.03
2023-03-16T17:04:34.969Z,99234.97
2023-03-16T17:07:36.805Z,99235.28
2023-03-16T17:10:39.050Z,99236.75
2023-03-16T17:13:41.196Z,99242.66
2023-03-16T17:16:43.293Z,99248.19
2023-03-16T17:19:45.720Z,99252.59
2023-03-16T17:22:48.537Z,99250.63
2023-03-16T17:25:50.777Z,99266.66
2023-03-16T17:28:57.109Z,99264.22
2023-03-16T17:32:04.286Z,99260.25
2023-03-16T17:35:14.241Z,99271.09
2023-03-16T17:38:21.528Z,99272.91
2023-03-16T17:41:24.701Z,99279.81
2023-03-16T17:44:31.048Z,99277.00
2023-03-16T17:47:33.711Z,99277.59
2023-03-16T17:50:35.869Z,99283.47
2023-03-16T17:53:38.034Z,99287.84
2023-03-16T17:56:41.134Z,99298.03
2023-03-16T17:59:46.315Z,99301.47
2023-03-16T18:02:54.513Z,99313.03
2023-03-16T18:05:56.759Z,99316.53
2023-03-16T18:08:59.383Z,99315.72
2023-03-16T18:12:01.897Z,99314.47
2023-03-16T18:15:05.057Z,99325.09
2023-03-16T18:18:07.724Z,99322.63
2023-03-16T18:21:20.420Z,99331.84
2023-03-16T18:24:22.932Z,99340.66
2023-03-16T18:27:25.706Z,99339.00
2023-03-16T18:30:28.195Z,99335.88
2023-03-16T18:33:39.213Z,99340.28
2023-03-16T18:36:41.849Z,99349.50
2023-03-16T18:39:44.340Z,99356.19
2023-03-16T18:42:46.841Z,99343.78
2023-03-16T18:45:49.236Z,99351.69
2023-03-16T18:49:01.520Z,99353.75
2023-03-16T18:52:04.779Z,99355.19
2023-03-16T18:55:15.105Z,99358.81
2023-03-16T18:58:20.603Z,99353.09
2023-03-16T19:01:26.544Z,99356.91
2023-03-16T19:04:30.248Z,99344.03
2023-03-16T19:07:35.052Z,99351.06
2023-03-16T19:10:40.156Z,99360.56
2023-03-16T19:13:43.083Z,99370.78
2023-03-16T19:16:48.927Z,99363.75
2023-03-16T19:19:52.945Z,99358.19
2023-03-16T19:23:14.426Z,99369.47
2023-03-16T19:26:18.584Z,99372.97
2023-03-16T19:29:28.648Z,99375.44
2023-03-16T19:32:31.473Z,99380.00
2023-03-16T19:35:50.730Z,99387.63
2023-03-16T19:38:55.230Z,99391.03
2023-03-16T19:42:00.860Z,99404.84
2023-03-16T19:45:07.354Z,99407.44
2023-03-16T19:48:15.745Z,99409.88
2023-03-16T19:51:18.548Z,99407.94
2023-03-16T19:54:29.109Z,99400.13
2023-03-16T19:57:34.313Z,99408.16
2023-03-16T20:00:38.292Z,99406.50
2023-03-16T20:03:41.043Z,99409.00
2023-03-16T20:06:44.676Z,99409.31
2023-03-16T20:09:47.264Z,99399.75
2023-03-16T20:12:52.459Z,99405.16
2023-03-16T20:15:55.132Z,99404.38
2023-03-16T20:18:58.940Z,99397.53
2023-03-16T20:22:01.582Z,99402.16
2023-03-16T20:25:04.132Z,99396.16
2023-03-16T20:28:06.926Z,99405.47
2023-03-16T20:31:19.009Z,99403.81
2023-03-16T20:34:23.157Z,99399.25
2023-03-16T20:37:27.575Z,99397.06
2023-03-16T20:40:30.303Z,99397.41
2023-03-16T20:43:33.079Z,99399.78
2023-03-16T20:46:39.528Z,99397.63
2023-03-16T20:49:41.907Z,99403.91
2023-03-16T20:52:43.837Z,99404.44
2023-03-16T20:55:49.447Z,99405.41
2023-03-16T20:58:51.700Z,99408.97
2023-03-16T21:01:53.764Z,99392.16
2023-03-16T21:04:56.340Z,99398.25
2023-03-16T21:07:58.380Z,99396.06
2023-03-16T21:11:00.543Z,99393.91
2023-03-16T21:14:02.863Z,99400.41
2023-03-16T21:17:09.065Z,99404.53
2023-03-16T21:20:30.843Z,99396.31
2023-03-16T21:23:33.011Z,99402.09
2023-03-16T21:26:34.926Z,99401.00
2023-03-16T21:29:36.861Z,99399.81
2023-03-16T21:32:38.588Z,99403.13
2023-03-16T21:35:40.398Z,99401.59
2023-03-16T21:38:42.174Z,99391.63
2023-03-16T21:41:43.804Z,99386.28
2023-03-16T21:44:45.553Z,99384.00
2023-03-16T21:47:47.278Z,99371.72
2023-03-16T21:50:49.482Z,99359.13
2023-03-16T21:53:51.219Z,99356.91
2023-03-16T21:56:52.868Z,99360.47
2023-03-16T21:59:54.613Z,99352.50
2023-03-16T22:02:57.759Z,99357.50
2023-03-16T22:05:59.538Z,99352.25
2023-03-16T22:09:01.174Z,99368.00
2023-03-16T22:12:02.816Z,99370.91
2023-03-16T22:15:04.760Z,99375.81
2023-03-16T22:18:07.627Z,99369.63
2023-03-16T22:21:27.472Z,99380.72
2023-03-16T22:24:29.631Z,99372.91
2023-03-16T22:27:31.288Z,99373.53
2023-03-16T22:30:32.925Z,99371.06
2023-03-16T22:33:35.216Z,99364.63
2023-03-16T22:36:36.879Z,99369.84
2023-03-16T22:39:38.641Z,99357.16
2023-03-16T22:42:40.249Z,99355.44
2023-03-16T22:45:41.915Z,99335.97
2023-03-16T22:48:43.567Z,99355.13
2023-03-16T22:51:45.212Z,99346.09
2023-03-16T22:54:46.887Z,99348.56
2023-03-16T22:58:00.021Z,99348.03
2023-03-16T23:01:06.041Z,99349.97
2023-03-16T23:04:13.623Z,99347.38
2023-03-16T23:07:15.411Z,99355.69
2023-03-16T23:10:18.278Z,99356.03
2023-03-16T23:13:21.199Z,99345.41
2023-03-16T23:16:24.666Z,99346.94
2023-03-16T23:19:30.740Z,99348.03
2023-03-16T23:22:32.404Z,99351.03
2023-03-16T23:25:34.070Z,99347.13
2023-03-16T23:28:35.731Z,99355.25
2023-03-16T23:31:37.398Z,99366.50
2023-03-16T23:34:39.033Z,99359.34
2023-03-16T23:37:40.682Z,99360.72
2023-03-16T23:40:42.323Z,99351.41
2023-03-16T23:43:44.657Z,99366.81
2023-03-16T23:46:46.321Z,99366.03
2023-03-16T23:49:47.965Z,99360.34
2023-03-16T23:52:49.622Z,99356.81
2023-03-16T23:55:51.217Z,99366.94
2023-03-16T23:58:53.810Z,99351.53
